createdAt,value
2019-03-25T00:01:58.824Z,17.42
2019-03-25T00:04:27.427Z,24.00
2019-03-25T00:06:56.062Z,17.62
2019-03-25T00:09:24.804Z,32.42
2019-03-25T00:11:53.479Z,22.87
2019-03-25T00:14:21.983Z,27.15
2019-03-25T00:16:50.654Z,27.80
2019-03-25T00:19:19.387Z,19.70
2019-03-25T00:21:48.029Z,20.85
2019-03-25T00:24:16.593Z,26.60
2019-03-25T00:26:45.281Z,22.62
2019-03-25T00:29:13.987Z,21.05
2019-03-25T00:31:42.491Z,19.75
2019-03-25T00:34:11.097Z,20.80
2019-03-25T00:36:39.831Z,19.98
2019-03-25T00:39:08.617Z,18.87
2019-03-25T00:41:37.440Z,19.15
2019-03-25T00:44:06.080Z,20.62
2019-03-25T00:46:34.708Z,20.08
2019-03-25T00:49:03.382Z,27.25
2019-03-25T00:51:32.020Z,17.82
2019-03-25T00:54:00.659Z,23.02
2019-03-25T00:56:29.324Z,23.57
2019-03-25T00:58:57.958Z,29.42
2019-03-25T01:01:26.595Z,24.63
2019-03-25T01:03:55.278Z,17.25
2019-03-25T01:06:23.917Z,22.17
2019-03-25T01:08:52.548Z,27.02
2019-03-25T01:11:21.222Z,28.90
2019-03-25T01:13:49.863Z,45.40
2019-03-25T01:16:18.538Z,41.50
2019-03-25T01:18:47.218Z,37.33
2019-03-25T01:21:15.847Z,41.55
2019-03-25T01:23:44.480Z,36.10
2019-03-25T01:26:13.112Z,32.25
2019-03-25T01:28:41.747Z,35.08
2019-03-25T01:31:10.646Z,28.57
2019-03-25T01:33:39.274Z,29.27
2019-03-25T01:36:07.792Z,31.55
2019-03-25T01:38:37.306Z,28.57
2019-03-25T01:41:05.941Z,31.27
2019-03-25T01:43:34.505Z,27.93
2019-03-25T01:46:03.229Z,28.77
2019-03-25T01:48:31.788Z,28.07
2019-03-25T01:51:00.424Z,29.47
2019-03-25T01:53:29.105Z,30.82
2019-03-25T01:55:57.599Z,31.90
2019-03-25T01:58:26.453Z,30.23
2019-03-25T02:00:55.101Z,31.45
2019-03-25T02:03:23.721Z,31.48
2019-03-25T02:05:52.404Z,30.93
2019-03-25T02:08:21.304Z,30.85
2019-03-25T02:10:49.861Z,33.00
2019-03-25T02:13:18.499Z,32.77
2019-03-25T02:15:47.130Z,31.67
2019-03-25T02:18:15.719Z,33.73
2019-03-25T02:20:44.462Z,29.63
2019-03-25T02:23:13.147Z,34.63
2019-03-25T02:25:41.743Z,38.25
2019-03-25T02:28:10.358Z,37.98
2019-03-25T02:30:38.962Z,35.47
2019-03-25T02:33:07.589Z,39.63
2019-03-25T02:35:36.266Z,33.30
2019-03-25T02:38:04.898Z,33.15
2019-03-25T02:40:33.541Z,33.75
2019-03-25T02:43:02.212Z,35.33
2019-03-25T02:45:30.770Z,43.68
2019-03-25T02:47:59.445Z,37.33
2019-03-25T02:50:28.188Z,36.33
2019-03-25T02:52:56.745Z,32.70
2019-03-25T02:55:40.166Z,33.40
2019-03-25T02:57:55.565Z,34.15
2019-03-25T03:00:34.998Z,40.10
2019-03-25T03:03:04.202Z,35.30
2019-03-25T03:05:32.694Z,31.57
2019-03-25T03:08:01.254Z,28.60
2019-03-25T03:10:30.043Z,24.30
2019-03-25T03:12:58.615Z,24.73
2019-03-25T03:15:27.245Z,22.13
2019-03-25T03:17:56.189Z,22.93
2019-03-25T03:20:24.757Z,26.17
2019-03-25T03:22:53.354Z,27.27
2019-03-25T03:25:21.992Z,28.30
2019-03-25T03:27:50.555Z,21.35
2019-03-25T03:30:19.346Z,26.73
2019-03-25T03:32:47.995Z,25.13
2019-03-25T03:35:16.612Z,26.70
2019-03-25T03:37:45.213Z,24.50
2019-03-25T03:40:14.045Z,23.40
2019-03-25T03:42:42.804Z,28.63
2019-03-25T03:45:11.755Z,31.43
2019-03-25T03:47:40.320Z,31.50
2019-03-25T03:50:09.258Z,32.37
2019-03-25T03:52:38.364Z,29.43
2019-03-25T03:55:07.286Z,26.97
2019-03-25T03:57:36.326Z,27.77
2019-03-25T04:00:07.543Z,30.53
2019-03-25T04:02:36.212Z,33.28
2019-03-25T04:05:04.949Z,31.50
2019-03-25T04:07:33.515Z,31.97
2019-03-25T04:10:02.169Z,24.07
2019-03-25T04:12:30.844Z,25.57
2019-03-25T04:14:59.475Z,25.43
2019-03-25T04:17:28.047Z,23.10
2019-03-25T04:19:56.927Z,25.07
2019-03-25T04:22:25.493Z,27.50
2019-03-25T04:24:53.998Z,29.77
2019-03-25T04:27:23.465Z,25.27
2019-03-25T04:29:52.114Z,28.37
2019-03-25T04:32:20.678Z,24.17
2019-03-25T04:34:49.448Z,23.73
2019-03-25T04:37:18.020Z,25.43
2019-03-25T04:39:46.700Z,31.10
2019-03-25T04:42:15.302Z,29.27
2019-03-25T04:44:43.943Z,24.57
2019-03-25T04:47:12.506Z,41.20
2019-03-25T04:49:41.362Z,36.95
2019-03-25T04:52:10.017Z,36.42
2019-03-25T04:54:38.643Z,32.15
2019-03-25T04:57:07.311Z,37.42
2019-03-25T04:59:35.810Z,33.73
2019-03-25T05:02:04.390Z,52.78
2019-03-25T05:04:33.269Z,37.58
2019-03-25T05:07:01.837Z,48.33
2019-03-25T05:09:30.343Z,40.25
2019-03-25T05:11:59.126Z,59.83
2019-03-25T05:14:27.833Z,51.10
2019-03-25T05:16:56.407Z,59.42
2019-03-25T05:19:25.291Z,61.10
2019-03-25T05:21:53.853Z,39.48
2019-03-25T05:24:22.525Z,42.75
2019-03-25T05:26:51.518Z,43.92
2019-03-25T05:29:20.169Z,41.30
2019-03-25T05:31:48.745Z,44.85
2019-03-25T05:34:17.306Z,36.80
2019-03-25T05:36:45.880Z,47.17
2019-03-25T05:39:14.631Z,46.92
2019-03-25T05:41:43.239Z,41.77
2019-03-25T05:44:11.743Z,32.88
2019-03-25T05:46:40.325Z,58.00
2019-03-25T05:49:08.941Z,52.48
2019-03-25T05:51:37.507Z,44.23
2019-03-25T05:54:06.080Z,41.28
2019-03-25T05:56:34.757Z,42.95
2019-03-25T05:59:03.422Z,40.43
2019-03-25T06:01:32.258Z,35.23
2019-03-25T06:04:00.809Z,38.50
2019-03-25T06:06:29.354Z,49.55
2019-03-25T06:08:58.000Z,34.85
2019-03-25T06:11:26.609Z,33.73
2019-03-25T06:13:55.218Z,34.98
2019-03-25T06:16:23.849Z,35.33
2019-03-25T06:18:52.523Z,35.00
2019-03-25T06:21:21.092Z,36.05
2019-03-25T06:23:49.615Z,30.95
2019-03-25T06:26:18.220Z,28.73
2019-03-25T06:28:46.864Z,29.87
2019-03-25T06:31:15.498Z,35.95
2019-03-25T06:33:44.018Z,29.05
2019-03-25T06:36:12.589Z,27.73
2019-03-25T06:38:41.423Z,38.95
2019-03-25T06:41:10.047Z,44.23
2019-03-25T06:43:38.681Z,40.23
2019-03-25T06:46:07.375Z,33.88
2019-03-25T06:48:35.881Z,31.45
2019-03-25T06:51:04.523Z,34.08
2019-03-25T06:53:33.239Z,32.20
2019-03-25T06:56:01.828Z,29.63
2019-03-25T06:58:30.316Z,33.65
2019-03-25T07:00:59.043Z,36.48
2019-03-25T07:03:29.782Z,37.63
2019-03-25T07:05:57.977Z,37.00
2019-03-25T07:08:26.529Z,27.85
2019-03-25T07:10:55.272Z,35.40
2019-03-25T07:13:24.603Z,37.75
2019-03-25T07:15:53.282Z,32.85
2019-03-25T07:18:21.855Z,55.58
2019-03-25T07:20:50.497Z,31.48
2019-03-25T07:23:19.108Z,39.60
2019-03-25T07:25:47.674Z,35.10
2019-03-25T07:28:16.318Z,26.57
2019-03-25T07:30:44.918Z,28.23
2019-03-25T07:33:13.493Z,27.35
2019-03-25T07:35:42.066Z,30.92
2019-03-25T07:38:10.878Z,28.67
2019-03-25T07:40:39.451Z,28.62
2019-03-25T07:43:07.991Z,31.12
2019-03-25T07:45:36.679Z,29.15
2019-03-25T07:48:05.329Z,31.23
2019-03-25T07:50:33.948Z,27.30
2019-03-25T07:53:02.480Z,28.75
2019-03-25T07:55:31.046Z,30.43
2019-03-25T07:57:59.619Z,32.75
2019-03-25T08:00:28.436Z,33.42
2019-03-25T08:02:57.038Z,33.80
2019-03-25T08:05:25.616Z,33.00
2019-03-25T08:07:54.385Z,29.15
2019-03-25T08:10:33.576Z,29.87
2019-03-25T08:13:02.538Z,34.67
2019-03-25T08:15:31.206Z,27.15
2019-03-25T08:18:00.084Z,32.60
2019-03-25T08:20:29.668Z,26.50
2019-03-25T08:22:58.314Z,28.62
2019-03-25T08:25:26.947Z,28.87
2019-03-25T08:28:00.127Z,29.50
2019-03-25T08:30:25.925Z,27.37
2019-03-25T08:32:54.567Z,26.87
2019-03-25T08:35:23.165Z,21.97
2019-03-25T08:37:51.754Z,22.20
2019-03-25T08:40:20.497Z,33.75
2019-03-25T08:42:49.097Z,25.35
2019-03-25T08:45:17.729Z,24.20
2019-03-25T08:47:46.372Z,28.60
2019-03-25T08:50:15.246Z,27.87
2019-03-25T08:52:43.826Z,25.55
2019-03-25T08:55:12.869Z,25.50
2019-03-25T08:57:41.578Z,25.02
2019-03-25T09:00:11.700Z,27.75
2019-03-25T09:02:40.276Z,27.85
2019-03-25T09:05:09.740Z,18.23
2019-03-25T09:07:38.373Z,17.23
2019-03-25T09:10:08.312Z,24.55
2019-03-25T09:12:37.120Z,21.37
2019-03-25T09:15:08.561Z,32.15
2019-03-25T09:17:37.270Z,23.60
2019-03-25T09:20:08.245Z,20.32
2019-03-25T09:22:36.957Z,23.32
2019-03-25T09:25:07.601Z,29.05
2019-03-25T09:27:36.481Z,26.37
2019-03-25T09:30:07.493Z,26.40
2019-03-25T09:32:36.248Z,22.25
2019-03-25T09:35:07.221Z,25.02
2019-03-25T09:37:35.720Z,26.68
2019-03-25T09:40:08.743Z,29.40
2019-03-25T09:42:37.413Z,24.63
2019-03-25T09:45:08.421Z,25.95
2019-03-25T09:47:37.935Z,24.72
2019-03-25T09:50:08.982Z,24.82
2019-03-25T09:52:38.731Z,23.00
2019-03-25T09:55:08.333Z,26.90
2019-03-25T09:57:37.143Z,23.95
2019-03-25T10:00:12.093Z,23.95
2019-03-25T10:02:40.775Z,22.93
2019-03-25T10:05:09.974Z,23.40
2019-03-25T10:07:38.622Z,20.17
2019-03-25T10:10:08.398Z,22.10
2019-03-25T10:12:37.155Z,23.15
2019-03-25T10:15:08.505Z,22.30
2019-03-25T10:17:37.181Z,26.95
2019-03-25T10:20:07.113Z,23.32
2019-03-25T10:22:35.621Z,20.37
2019-03-25T10:25:06.562Z,19.82
2019-03-25T10:27:35.206Z,17.92
2019-03-25T10:30:05.464Z,23.45
2019-03-25T10:32:34.024Z,19.52
2019-03-25T10:35:02.612Z,23.07
2019-03-25T10:37:31.181Z,16.32
2019-03-25T10:39:59.798Z,18.37
2019-03-25T10:42:28.447Z,24.92
2019-03-25T10:44:57.006Z,21.52
2019-03-25T10:47:25.556Z,26.07
2019-03-25T10:49:54.120Z,20.85
2019-03-25T10:52:22.765Z,19.42
2019-03-25T10:54:51.869Z,19.67
2019-03-25T10:57:20.574Z,22.48
2019-03-25T10:59:49.155Z,21.10
2019-03-25T11:02:18.062Z,20.70
2019-03-25T11:04:46.642Z,20.90
2019-03-25T11:07:15.238Z,17.42
2019-03-25T11:09:43.924Z,22.50
2019-03-25T11:12:12.669Z,16.82
2019-03-25T11:14:41.442Z,20.80
2019-03-25T11:17:10.060Z,15.93
2019-03-25T11:19:38.702Z,18.00
2019-03-25T11:22:07.343Z,19.20
2019-03-25T11:24:36.256Z,13.78
2019-03-25T11:27:04.891Z,12.07
2019-03-25T11:29:33.536Z,15.10
2019-03-25T11:32:02.227Z,12.73
2019-03-25T11:34:30.803Z,16.75
2019-03-25T11:36:59.320Z,11.85
2019-03-25T11:39:27.985Z,15.03
2019-03-25T11:41:56.625Z,14.40
2019-03-25T11:44:25.196Z,12.73
2019-03-25T11:46:53.802Z,22.48
2019-03-25T11:49:22.434Z,16.73
2019-03-25T11:51:51.070Z,14.13
2019-03-25T11:54:19.678Z,11.55
2019-03-25T11:56:48.296Z,12.37
2019-03-25T11:59:18.897Z,9.20
2019-03-25T12:01:47.439Z,18.62
2019-03-25T12:04:16.012Z,14.13
2019-03-25T12:06:44.653Z,15.90
2019-03-25T12:09:13.327Z,14.70
2019-03-25T12:11:41.937Z,15.75
2019-03-25T12:14:10.506Z,15.85
2019-03-25T12:16:39.190Z,15.75
2019-03-25T12:19:07.753Z,11.75
2019-03-25T12:21:36.243Z,8.53
2019-03-25T12:24:05.116Z,9.80
2019-03-25T12:26:33.759Z,9.58
2019-03-25T12:29:02.473Z,15.10
2019-03-25T12:31:31.159Z,12.75
2019-03-25T12:33:59.864Z,9.50
2019-03-25T12:36:28.419Z,7.17
2019-03-25T12:38:57.890Z,7.50
2019-03-25T12:41:26.520Z,8.00
2019-03-25T12:43:55.071Z,6.83
2019-03-25T12:46:23.904Z,7.25
2019-03-25T12:48:52.453Z,7.05
2019-03-25T12:51:21.076Z,8.65
2019-03-25T12:53:49.678Z,5.58
2019-03-25T12:56:18.184Z,8.70
2019-03-25T12:58:46.748Z,5.97
2019-03-25T13:01:15.424Z,10.45
2019-03-25T13:03:44.049Z,5.75
2019-03-25T13:06:12.620Z,15.40
2019-03-25T13:08:41.236Z,9.28
2019-03-25T13:11:09.869Z,6.42
2019-03-25T13:13:38.433Z,9.93
2019-03-25T13:16:07.100Z,6.55
2019-03-25T13:18:35.659Z,7.83
2019-03-25T13:21:04.293Z,6.95
2019-03-25T13:23:32.888Z,7.97
2019-03-25T13:26:01.526Z,9.20
2019-03-25T13:28:30.095Z,10.63
2019-03-25T13:30:58.775Z,7.70
2019-03-25T13:33:29.393Z,6.10
2019-03-25T13:35:57.700Z,7.58
2019-03-25T13:38:26.981Z,7.50
2019-03-25T13:40:55.474Z,6.95
2019-03-25T13:43:24.047Z,13.45
2019-03-25T13:45:52.738Z,11.53
2019-03-25T13:48:21.311Z,16.95
2019-03-25T13:50:49.808Z,11.38
2019-03-25T13:53:18.597Z,11.95
2019-03-25T13:55:47.230Z,15.48
2019-03-25T13:58:15.804Z,13.55
2019-03-25T14:00:44.657Z,14.28
2019-03-25T14:03:13.231Z,15.95
2019-03-25T14:05:41.734Z,9.20
2019-03-25T14:08:10.328Z,6.80
2019-03-25T14:10:39.063Z,13.38
2019-03-25T14:13:07.693Z,11.45
2019-03-25T14:15:36.282Z,7.42
2019-03-25T14:18:05.215Z,9.73
2019-03-25T14:20:33.849Z,5.92
2019-03-25T14:23:02.468Z,13.10
2019-03-25T14:25:30.958Z,12.88
2019-03-25T14:27:59.534Z,15.98
2019-03-25T14:30:28.273Z,10.20
2019-03-25T14:32:56.840Z,15.20
2019-03-25T14:35:25.416Z,6.58
2019-03-25T14:37:54.331Z,15.28
2019-03-25T14:40:22.895Z,7.03
2019-03-25T14:42:51.461Z,3.98
2019-03-25T14:45:26.274Z,8.63
2019-03-25T14:47:50.675Z,7.10
2019-03-25T14:50:19.506Z,5.37
2019-03-25T14:52:48.254Z,4.85
2019-03-25T14:55:16.895Z,6.20
2019-03-25T14:57:45.455Z,3.98
2019-03-25T15:00:24.446Z,5.83
2019-03-25T15:02:44.805Z,8.28
2019-03-25T15:05:13.621Z,3.98
2019-03-25T15:07:43.145Z,6.58
2019-03-25T15:10:12.182Z,7.85
2019-03-25T15:12:40.746Z,3.65
2019-03-25T15:15:09.883Z,4.22
2019-03-25T15:17:38.459Z,4.22
2019-03-25T15:20:10.041Z,5.22
2019-03-25T15:22:38.948Z,9.43
2019-03-25T15:25:09.680Z,6.08
2019-03-25T15:27:38.309Z,4.10
2019-03-25T15:30:10.113Z,4.80
2019-03-25T15:32:38.803Z,5.35
2019-03-25T15:35:08.396Z,7.00
2019-03-25T15:37:36.989Z,10.65
2019-03-25T15:40:08.565Z,10.95
2019-03-25T15:42:37.247Z,10.45
2019-03-25T15:45:07.485Z,6.35
2019-03-25T15:47:36.157Z,6.97
2019-03-25T15:50:07.744Z,10.55
2019-03-25T15:52:36.375Z,7.30
2019-03-25T15:55:05.808Z,9.63
2019-03-25T15:57:34.488Z,6.83
2019-03-25T16:00:03.324Z,8.25
2019-03-25T16:02:31.888Z,8.00
2019-03-25T16:05:00.566Z,10.85
2019-03-25T16:07:29.142Z,8.88
2019-03-25T16:09:57.715Z,11.83
2019-03-25T16:12:26.326Z,11.90
2019-03-25T16:14:54.891Z,8.65
2019-03-25T16:17:23.457Z,11.83
2019-03-25T16:19:52.011Z,14.63
2019-03-25T16:22:20.570Z,11.73
2019-03-25T16:24:49.209Z,7.60
2019-03-25T16:27:17.816Z,11.28
2019-03-25T16:29:46.321Z,10.10
2019-03-25T16:32:14.962Z,12.18
2019-03-25T16:34:43.634Z,14.05
2019-03-25T16:37:12.293Z,11.68
2019-03-25T16:39:40.806Z,10.80
2019-03-25T16:42:09.399Z,7.92
2019-03-25T16:44:38.030Z,15.00
2019-03-25T16:47:06.606Z,8.85
2019-03-25T16:49:35.136Z,12.33
2019-03-25T16:52:03.774Z,8.93
2019-03-25T16:54:32.420Z,10.50
2019-03-25T16:57:01.099Z,9.20
2019-03-25T16:59:29.597Z,14.40
2019-03-25T17:01:58.161Z,10.98
2019-03-25T17:04:26.838Z,11.97
2019-03-25T17:06:55.500Z,11.85
2019-03-25T17:09:24.021Z,8.70
2019-03-25T17:11:52.802Z,15.53
2019-03-25T17:14:21.374Z,10.15
2019-03-25T17:16:49.945Z,14.63
2019-03-25T17:19:18.624Z,15.98
2019-03-25T17:21:57.390Z,20.15
2019-03-25T17:24:17.491Z,31.70
2019-03-25T17:26:46.157Z,40.92
2019-03-25T17:29:14.797Z,28.05
2019-03-25T17:31:43.363Z,27.95
2019-03-25T17:34:11.948Z,17.20
2019-03-25T17:36:40.544Z,21.85
2019-03-25T17:39:09.839Z,11.90
2019-03-25T17:41:38.455Z,18.77
2019-03-25T17:44:06.950Z,9.55
2019-03-25T17:46:35.524Z,13.78
2019-03-25T17:49:04.197Z,18.12
2019-03-25T17:51:32.930Z,18.35
2019-03-25T17:54:02.057Z,14.78
2019-03-25T17:56:30.731Z,14.33
2019-03-25T17:58:59.401Z,16.60
2019-03-25T18:01:32.591Z,12.82
2019-03-25T18:04:00.096Z,16.32
2019-03-25T18:06:28.792Z,16.97
2019-03-25T18:08:57.453Z,14.50
2019-03-25T18:11:26.155Z,15.78
2019-03-25T18:13:54.782Z,15.93
2019-03-25T18:16:23.425Z,15.85
2019-03-25T18:18:52.102Z,15.05
2019-03-25T18:21:20.776Z,13.28
2019-03-25T18:23:49.413Z,18.02
2019-03-25T18:26:18.167Z,17.20
2019-03-25T18:28:46.662Z,18.10
2019-03-25T18:31:15.228Z,20.08
2019-03-25T18:33:43.999Z,19.70
2019-03-25T18:36:12.681Z,21.80
2019-03-25T18:38:41.358Z,18.35
2019-03-25T18:41:10.511Z,21.02
2019-03-25T18:43:39.085Z,24.43
2019-03-25T18:46:07.726Z,24.00
2019-03-25T18:48:36.657Z,17.75
2019-03-25T18:51:05.414Z,25.08
2019-03-25T18:53:34.063Z,24.02
2019-03-25T18:56:02.928Z,26.07
2019-03-25T18:58:31.558Z,26.60
2019-03-25T19:01:00.132Z,18.90
2019-03-25T19:03:28.876Z,22.55
2019-03-25T19:05:57.511Z,13.55
2019-03-25T19:08:26.146Z,22.87
2019-03-25T19:10:54.751Z,23.80
2019-03-25T19:13:23.250Z,20.20
2019-03-25T19:15:51.822Z,29.05
2019-03-25T19:18:20.657Z,28.00
2019-03-25T19:20:49.292Z,32.42
2019-03-25T19:23:17.934Z,32.00
2019-03-25T19:25:46.874Z,22.60
2019-03-25T19:28:15.492Z,26.55
2019-03-25T19:30:44.064Z,31.62
2019-03-25T19:33:12.620Z,31.45
2019-03-25T19:35:41.254Z,24.37
2019-03-25T19:38:09.890Z,23.90
2019-03-25T19:40:38.511Z,22.13
2019-03-25T19:43:07.081Z,20.40
2019-03-25T19:45:35.651Z,17.02
2019-03-25T19:48:05.009Z,24.27
2019-03-25T19:50:33.758Z,17.95
2019-03-25T19:53:02.323Z,21.60
2019-03-25T19:55:31.045Z,23.85
2019-03-25T19:57:59.622Z,22.05
2019-03-25T20:00:31.179Z,27.95
2019-03-25T20:02:59.854Z,22.13
2019-03-25T20:05:28.509Z,25.85
2019-03-25T20:07:57.160Z,18.67
2019-03-25T20:10:31.242Z,20.37
2019-03-25T20:13:00.903Z,16.37
2019-03-25T20:15:32.610Z,20.40
2019-03-25T20:17:59.906Z,20.77
2019-03-25T20:20:28.463Z,17.12
2019-03-25T20:22:57.164Z,17.37
2019-03-25T20:25:25.953Z,20.05
2019-03-25T20:27:54.569Z,18.30
2019-03-25T20:30:23.372Z,20.15
2019-03-25T20:32:51.967Z,21.27
2019-03-25T20:35:20.551Z,16.30
2019-03-25T20:37:49.190Z,19.40
2019-03-25T20:40:18.005Z,16.40
2019-03-25T20:42:46.646Z,16.65
2019-03-25T20:45:18.228Z,19.00
2019-03-25T20:47:45.922Z,16.50
2019-03-25T20:50:14.720Z,15.95
2019-03-25T20:52:43.497Z,12.50
2019-03-25T20:55:13.651Z,15.43
2019-03-25T20:57:42.318Z,16.37
2019-03-25T21:00:13.365Z,18.70
2019-03-25T21:02:45.225Z,14.35
2019-03-25T21:05:12.361Z,16.50
2019-03-25T21:07:41.063Z,15.72
2019-03-25T21:10:09.678Z,12.80
2019-03-25T21:12:38.719Z,11.73
2019-03-25T21:15:08.812Z,11.48
2019-03-25T21:17:37.414Z,12.28
2019-03-25T21:20:07.744Z,12.73
2019-03-25T21:22:36.555Z,12.55
2019-03-25T21:25:07.214Z,11.45
2019-03-25T21:27:35.761Z,11.38
2019-03-25T21:30:05.738Z,11.43
2019-03-25T21:32:34.468Z,11.08
2019-03-25T21:35:03.155Z,12.50
2019-03-25T21:37:31.985Z,9.85
2019-03-25T21:40:00.542Z,12.28
2019-03-25T21:42:29.458Z,11.63
2019-03-25T21:44:58.190Z,14.05
2019-03-25T21:47:26.970Z,12.80
2019-03-25T21:49:55.611Z,11.40
2019-03-25T21:52:24.282Z,13.40
2019-03-25T21:54:52.998Z,18.77
2019-03-25T21:57:21.483Z,15.90
2019-03-25T21:59:50.140Z,16.50
2019-03-25T22:02:18.764Z,16.45
2019-03-25T22:04:47.329Z,12.88
2019-03-25T22:07:16.067Z,12.80
2019-03-25T22:09:44.713Z,13.08
2019-03-25T22:12:13.340Z,13.48
2019-03-25T22:14:41.959Z,19.25
2019-03-25T22:17:10.467Z,18.87
2019-03-25T22:19:39.111Z,17.23
2019-03-25T22:22:08.291Z,21.02
2019-03-25T22:24:36.849Z,20.97
2019-03-25T22:27:05.487Z,35.03
2019-03-25T22:29:34.139Z,32.53
2019-03-25T22:32:02.852Z,32.60
2019-03-25T22:34:31.401Z,31.62
2019-03-25T22:37:00.082Z,31.82
2019-03-25T22:39:28.650Z,26.48
2019-03-25T22:41:57.147Z,30.80
2019-03-25T22:44:25.751Z,30.62
2019-03-25T22:46:54.395Z,27.22
2019-03-25T22:49:22.967Z,25.17
2019-03-25T22:51:51.667Z,29.57
2019-03-25T22:54:20.303Z,28.87
2019-03-25T22:56:49.076Z,26.30
2019-03-25T22:59:17.959Z,33.35
2019-03-25T23:01:46.607Z,28.05
2019-03-25T23:04:15.192Z,24.77
2019-03-25T23:06:43.851Z,26.65
2019-03-25T23:09:12.459Z,28.62
2019-03-25T23:11:41.091Z,28.45
2019-03-25T23:14:09.695Z,23.40
2019-03-25T23:16:38.191Z,29.30
2019-03-25T23:19:06.895Z,24.52
2019-03-25T23:21:35.587Z,36.33
2019-03-25T23:24:04.983Z,35.70
2019-03-25T23:26:33.551Z,36.13
2019-03-25T23:29:02.149Z,31.33
2019-03-25T23:31:30.788Z,26.85
2019-03-25T23:33:59.358Z,22.98
2019-03-25T23:36:28.178Z,25.52
2019-03-25T23:38:56.815Z,24.67
2019-03-25T23:41:25.456Z,19.85
2019-03-25T23:43:54.067Z,20.55
2019-03-25T23:46:22.564Z,20.57
2019-03-25T23:48:51.141Z,28.20
2019-03-25T23:51:19.944Z,30.55
2019-03-25T23:53:48.513Z,20.43
2019-03-25T23:56:18.913Z,25.80
2019-03-25T23:58:47.673Z,25.40
